Graton, California
Current Conditions -  °F | °C
As of 11:30 PM on Friday 24 Oct 2014 (Local Time) from KSTS Reporting Station
Overcast Overcast  
Wind Chill: 63°   Ceiling: 2500
Heat Index: 63°   Visibility: 10mi
Dew Point: 55°   Wind: 8mph
Humidity: 77%   Direction: 150°SSE
Pressure: 29.88"   Gusts: NA
Location:  38.44°N, 122.87°W
Report Text: KSTS 250630Z AUTO 15007KT 10SM BKN025 OVC040 17/13 A2988 RMK AO2
Loading
Personal Weather Stations






























Interactive Weather Map
Tropical Storm Tracking
New forecast layout! Learn more

10-Day Weather Forecast

Advertisements
Track Severe Weather on mobile